Time;durP1;ratioP1;P1;durP2;ratioP2;P2;SDS_P1;SDS_P2;PMS_P1;PMS_P2;Temp;Humidity;BMP_temperature;BMP_pressure;BME280_temperature;BME280_humidity;BME280_pressure;Samples;Min_cycle;Max_cycle;Signal;HPM_P1;HPM_P2
2021/09/29 00:01:56;;;;;;;5.60;3.03;;;;;;;;;;5088812;28;20048;-68
2021/09/29 00:04:22;;;;;;;5.47;3.08;;;;;;;;;;5091331;28;20072;-68
2021/09/29 00:06:47;;;;;;;3.53;2.42;;;;;;;;;;5073729;28;20444;-68
2021/09/29 00:09:13;;;;;;;4.35;2.58;;;;;;;;;;5073337;28;20136;-67
2021/09/29 00:11:38;;;;;;;5.10;2.97;;;;;;;;;;5074608;28;20100;-68
2021/09/29 00:14:04;;;;;;;4.20;2.42;;;;;;;;;;5073838;28;20028;-68
2021/09/29 00:16:29;;;;;;;4.15;2.90;;;;;;;;;;5074051;28;20016;-68
2021/09/29 00:18:55;;;;;;;10.23;3.17;;;;;;;;;;5093630;28;20297;-68
2021/09/29 00:21:20;;;;;;;3.72;2.50;;;;;;;;;;5092543;28;20035;-68
2021/09/29 00:23:47;;;;;;;6.53;3.10;;;;;;;;;;5092720;28;20043;-68
2021/09/29 00:26:12;;;;;;;5.07;3.00;;;;;;;;;;5075177;28;20085;-67
2021/09/29 00:28:38;;;;;;;7.38;3.20;;;;;;;;;;5089651;28;20110;-68
2021/09/29 00:31:12;;;;;;;7.38;2.95;;;;;;;;;;5090901;28;20518;-68
2021/09/29 00:33:39;;;;;;;;;;;;;;;;;;5079470;28;20047;-68
2021/09/29 00:36:05;;;;;;;4.78;3.20;;;;;;;;;;5079011;28;19990;-68
2021/09/29 00:38:31;;;;;;;6.90;3.47;;;;;;;;;;5088522;28;20035;-68
2021/09/29 00:40:58;;;;;;;7.32;3.80;;;;;;;;;;5090873;28;20652;-68
2021/09/29 00:43:24;;;;;;;6.68;3.38;;;;;;;;;;5089901;28;20395;-68
2021/09/29 00:45:49;;;;;;;7.10;3.53;;;;;;;;;;5074612;28;20028;-68
2021/09/29 00:48:15;;;;;;;6.28;4.07;;;;;;;;;;5080926;28;20028;-68
2021/09/29 00:50:40;;;;;;;4.63;3.53;;;;;;;;;;5072969;28;20043;-68
2021/09/29 00:53:06;;;;;;;4.05;3.38;;;;;;;;;;5072606;28;20115;-68
2021/09/29 00:55:32;;;;;;;6.30;3.88;;;;;;;;;;5074704;28;20046;-68
2021/09/29 00:57:57;;;;;;;6.60;3.83;;;;;;;;;;5085299;28;20027;-68
2021/09/29 01:00:22;;;;;;;6.05;4.13;;;;;;;;;;5085439;28;20385;-68
2021/09/29 01:02:48;;;;;;;5.28;3.90;;;;;;;;;;5092001;28;20023;-69
2021/09/29 01:05:14;;;;;;;5.70;4.18;;;;;;;;;;5089872;28;20047;-68
2021/09/29 01:07:49;;;;;;;5.25;4.05;;;;;;;;;;5088001;28;20036;-68
2021/09/29 01:10:23;;;;;;;5.75;4.38;;;;;;;;;;5091360;28;20533;-68
2021/09/29 01:12:55;;;;;;;6.93;3.85;;;;;;;;;;5090894;28;20020;-69
2021/09/29 01:15:45;;;;;;;7.15;4.78;;;;;;;;;;5081270;28;20362;-68
2021/09/29 01:18:14;;;;;;;10.85;4.57;;;;;;;;;;5064056;28;20051;-68
2021/09/29 01:20:54;;;;;;;6.00;4.30;;;;;;;;;;5072266;28;20024;-68
2021/09/29 01:23:25;;;;;;;5.95;3.97;;;;;;;;;;5087293;28;20035;-68
2021/09/29 01:25:56;;;;;;;7.78;4.30;;;;;;;;;;5079744;28;20028;-68
2021/09/29 01:28:39;;;;;;;6.45;4.15;;;;;;;;;;5073198;28;20376;-68
2021/09/29 01:31:05;;;;;;;7.63;4.20;;;;;;;;;;5071749;28;20507;-68
2021/09/29 01:33:32;;;;;;;5.32;4.22;;;;;;;;;;5072001;28;20040;-68
2021/09/29 01:35:59;;;;;;;6.00;4.10;;;;;;;;;;5090306;28;20137;-68
2021/09/29 01:38:24;;;;;;;6.00;4.05;;;;;;;;;;5076659;28;20028;-68
2021/09/29 01:40:51;;;;;;;6.65;4.30;;;;;;;;;;5077080;28;20107;-68
2021/09/29 01:43:17;;;;;;;7.53;4.38;;;;;;;;;;5090091;28;20020;-68
2021/09/29 01:45:44;;;;;;;5.90;4.03;;;;;;;;;;5078610;28;20032;-68
2021/09/29 01:48:10;;;;;;;7.82;4.55;;;;;;;;;;5079421;28;20036;-68
2021/09/29 01:50:37;;;;;;;5.70;4.10;;;;;;;;;;5091138;28;20379;-68
2021/09/29 01:53:03;;;;;;;4.80;4.03;;;;;;;;;;5086135;28;20430;-69
2021/09/29 01:55:29;;;;;;;5.95;4.00;;;;;;;;;;5090391;28;20021;-69
2021/09/29 01:57:55;;;;;;;7.72;4.00;;;;;;;;;;5091708;28;20031;-68
2021/09/29 02:00:23;;;;;;;7.80;4.00;;;;;;;;;;5079333;28;20028;-69
2021/09/29 02:02:49;;;;;;;8.10;3.95;;;;;;;;;;5082056;28;20404;-69
2021/09/29 02:05:27;;;;;;;5.68;4.13;;;;;;;;;;5073490;28;20063;-69
2021/09/29 02:07:52;;;;;;;7.28;3.97;;;;;;;;;;5071129;28;20031;-68
2021/09/29 02:10:18;;;;;;;5.60;3.83;;;;;;;;;;5086413;28;20028;-68
2021/09/29 02:12:43;;;;;;;4.78;3.72;;;;;;;;;;5089949;28;20020;-68
2021/09/29 02:15:09;;;;;;;10.00;3.78;;;;;;;;;;5074632;28;20028;-68
2021/09/29 02:17:34;;;;;;;8.45;4.35;;;;;;;;;;5070600;28;20476;-69
2021/09/29 02:20:00;;;;;;;6.90;3.92;;;;;;;;;;5070957;28;20029;-68
2021/09/29 02:22:25;;;;;;;4.90;3.63;;;;;;;;;;5088342;28;20391;-69
2021/09/29 02:24:51;;;;;;;7.72;3.95;;;;;;;;;;5083661;28;20491;-68
2021/09/29 02:27:16;;;;;;;5.75;3.35;;;;;;;;;;5079422;28;20032;-68
2021/09/29 02:29:42;;;;;;;5.60;3.75;;;;;;;;;;5077986;28;20028;-68
2021/09/29 02:32:08;;;;;;;5.53;3.80;;;;;;;;;;5070771;28;20468;-68
2021/09/29 02:34:33;;;;;;;7.05;4.40;;;;;;;;;;5070810;28;20029;-68
2021/09/29 02:36:59;;;;;;;6.20;3.80;;;;;;;;;;5057306;28;20028;-68
2021/09/29 02:39:24;;;;;;;6.03;3.90;;;;;;;;;;5088985;28;20031;-68
2021/09/29 02:41:50;;;;;;;8.40;3.72;;;;;;;;;;5088450;28;20491;-68
2021/09/29 02:44:15;;;;;;;5.45;3.60;;;;;;;;;;5067228;28;20111;-68
2021/09/29 02:46:42;;;;;;;6.82;3.72;;;;;;;;;;5073466;28;20012;-69
2021/09/29 02:49:09;;;;;;;7.45;4.53;;;;;;;;;;5072263;28;20017;-68
2021/09/29 02:51:35;;;;;;;6.35;3.83;;;;;;;;;;5081966;28;20040;-68
2021/09/29 02:54:01;;;;;;;7.03;3.80;;;;;;;;;;5070670;28;20029;-68
2021/09/29 02:56:27;;;;;;;6.95;3.83;;;;;;;;;;5072490;28;20464;-68
2021/09/29 02:58:53;;;;;;;6.95;4.10;;;;;;;;;;5073508;28;20034;-68
2021/09/29 03:01:18;;;;;;;7.78;3.80;;;;;;;;;;5071840;28;20309;-68
2021/09/29 03:03:44;;;;;;;7.38;3.67;;;;;;;;;;5072010;28;20098;-68
2021/09/29 03:06:10;;;;;;;10.10;4.07;;;;;;;;;;5084622;28;20033;-68
2021/09/29 03:08:35;;;;;;;6.85;4.13;;;;;;;;;;5071727;28;20036;-68
2021/09/29 03:11:01;;;;;;;6.90;3.47;;;;;;;;;;5070533;28;20534;-68
2021/09/29 03:13:27;;;;;;;6.60;3.80;;;;;;;;;;5070599;28;20044;-68
2021/09/29 03:15:52;;;;;;;8.20;4.07;;;;;;;;;;5070556;28;20607;-69
2021/09/29 03:18:18;;;;;;;5.60;4.05;;;;;;;;;;5070217;28;20547;-68
2021/09/29 03:20:44;;;;;;;6.50;4.00;;;;;;;;;;5070526;28;20476;-68
2021/09/29 03:23:09;;;;;;;7.50;4.20;;;;;;;;;;5070185;28;20060;-68
2021/09/29 03:25:35;;;;;;;5.47;3.60;;;;;;;;;;5070478;28;20044;-68
2021/09/29 03:28:01;;;;;;;6.32;3.90;;;;;;;;;;5070350;28;20079;-68
2021/09/29 03:30:26;;;;;;;9.38;4.07;;;;;;;;;;5076639;28;20028;-68
2021/09/29 03:49:40;;;;;;;5.75;3.83;;;;;;;;;;5074305;28;20098;-68
2021/09/29 03:52:05;;;;;;;7.38;3.50;;;;;;;;;;5073695;28;20028;-68
2021/09/29 03:54:31;;;;;;;5.70;3.72;;;;;;;;;;5073925;28;20039;-68
2021/09/29 03:56:58;;;;;;;8.98;3.58;;;;;;;;;;5073465;28;20059;-68
2021/09/29 03:59:24;;;;;;;6.43;3.80;;;;;;;;;;5073504;28;20043;-68
2021/09/29 04:01:49;;;;;;;8.15;3.80;;;;;;;;;;5074064;28;20029;-68
2021/09/29 04:04:14;;;;;;;6.95;3.90;;;;;;;;;;5073442;28;20044;-68
2021/09/29 04:06:40;;;;;;;7.25;3.53;;;;;;;;;;5073681;28;20025;-68
2021/09/29 04:09:05;;;;;;;5.45;3.40;;;;;;;;;;5073626;28;20170;-67
2021/09/29 04:11:32;;;;;;;8.73;3.50;;;;;;;;;;5073799;28;20511;-68
2021/09/29 04:13:58;;;;;;;5.63;3.47;;;;;;;;;;5073553;28;20063;-68
2021/09/29 04:16:23;;;;;;;7.78;3.70;;;;;;;;;;5072937;28;20433;-68
2021/09/29 04:18:49;;;;;;;5.07;3.28;;;;;;;;;;5073499;28;20484;-68
2021/09/29 04:21:14;;;;;;;8.52;3.88;;;;;;;;;;5070305;28;20019;-68
2021/09/29 04:23:40;;;;;;;9.27;3.55;;;;;;;;;;5071377;28;20028;-68
2021/09/29 04:26:07;;;;;;;5.93;3.40;;;;;;;;;;5073277;28;20103;-68
2021/09/29 04:28:33;;;;;;;5.75;3.45;;;;;;;;;;5073250;28;20452;-68
2021/09/29 04:30:59;;;;;;;5.50;3.58;;;;;;;;;;5073229;28;20017;-68
2021/09/29 04:33:25;;;;;;;8.40;3.50;;;;;;;;;;5072904;28;20025;-68
2021/09/29 04:35:50;;;;;;;7.03;3.42;;;;;;;;;;5073184;28;20486;-68
2021/09/29 04:38:16;;;;;;;8.43;3.90;;;;;;;;;;5072759;28;20046;-68
2021/09/29 04:40:41;;;;;;;5.60;3.22;;;;;;;;;;5073000;28;20016;-68
2021/09/29 04:43:07;;;;;;;7.47;3.50;;;;;;;;;;5072899;28;20077;-68
2021/09/29 04:45:33;;;;;;;7.20;3.63;;;;;;;;;;5072801;28;20028;-68
2021/09/29 04:48:02;;;;;;;7.85;3.67;;;;;;;;;;5072882;28;20075;-68
2021/09/29 04:50:28;;;;;;;5.65;3.47;;;;;;;;;;5072736;28;20013;-68
2021/09/29 04:52:53;;;;;;;5.60;3.63;;;;;;;;;;5072820;28;20043;-68
2021/09/29 04:55:18;;;;;;;6.22;3.50;;;;;;;;;;5072493;28;20016;-68
2021/09/29 04:57:44;;;;;;;6.95;3.80;;;;;;;;;;5072603;28;20102;-68
2021/09/29 05:00:10;;;;;;;8.02;4.03;;;;;;;;;;5063877;28;20376;-68
2021/09/29 05:02:37;;;;;;;7.93;3.50;;;;;;;;;;5072385;28;20119;-69
2021/09/29 05:05:03;;;;;;;7.43;3.50;;;;;;;;;;5072067;28;20051;-68
2021/09/29 05:07:29;;;;;;;5.38;3.53;;;;;;;;;;5072308;28;20024;-68
2021/09/29 05:09:55;;;;;;;7.50;3.63;;;;;;;;;;5055189;28;20032;-68
2021/09/29 05:12:23;;;;;;;7.22;4.07;;;;;;;;;;5053429;28;20464;-69
2021/09/29 05:14:49;;;;;;;6.28;3.85;;;;;;;;;;5052292;28;20027;-68
2021/09/29 05:17:14;;;;;;;8.88;4.00;;;;;;;;;;5051948;28;20103;-68
2021/09/29 05:19:39;;;;;;;8.13;3.80;;;;;;;;;;5052332;28;20021;-68
2021/09/29 05:22:07;;;;;;;9.68;3.47;;;;;;;;;;5065041;28;20032;-68
2021/09/29 05:24:32;;;;;;;6.53;3.85;;;;;;;;;;5051980;28;20459;-68
2021/09/29 05:26:58;;;;;;;6.88;3.55;;;;;;;;;;5052765;28;20033;-68
2021/09/29 05:29:23;;;;;;;5.40;3.33;;;;;;;;;;5051839;28;20025;-68
2021/09/29 05:31:49;;;;;;;6.35;3.40;;;;;;;;;;5056696;28;20095;-68
2021/09/29 05:34:14;;;;;;;6.72;3.80;;;;;;;;;;5059570;28;20510;-68
2021/09/29 05:36:41;;;;;;;8.57;3.55;;;;;;;;;;5051922;28;20025;-68
2021/09/29 05:39:08;;;;;;;7.55;3.30;;;;;;;;;;5061192;28;20028;-68
2021/09/29 05:41:34;;;;;;;5.90;3.50;;;;;;;;;;5070234;28;20073;-68
2021/09/29 05:43:59;;;;;;;8.45;3.58;;;;;;;;;;5063302;28;20464;-68
2021/09/29 05:46:25;;;;;;;8.05;3.80;;;;;;;;;;5059969;28;20025;-68
2021/09/29 05:48:51;;;;;;;5.63;3.50;;;;;;;;;;5071300;28;20025;-68
2021/09/29 05:51:17;;;;;;;5.95;3.28;;;;;;;;;;5074884;28;20496;-68
2021/09/29 05:53:42;;;;;;;8.48;3.95;;;;;;;;;;5070717;28;20044;-69
2021/09/29 05:56:09;;;;;;;6.38;2.90;;;;;;;;;;5071378;28;20063;-68
2021/09/29 05:58:35;;;;;;;6.20;3.63;;;;;;;;;;5053157;28;20031;-68
2021/09/29 06:01:01;;;;;;;6.78;3.75;;;;;;;;;;5067227;28;20447;-68
2021/09/29 06:03:26;;;;;;;9.52;3.58;;;;;;;;;;5069090;28;20098;-68
2021/09/29 06:05:51;;;;;;;6.18;3.50;;;;;;;;;;5084734;28;20073;-68
2021/09/29 06:08:17;;;;;;;6.00;3.08;;;;;;;;;;5090626;28;20028;-68
2021/09/29 06:10:43;;;;;;;7.88;3.25;;;;;;;;;;5086043;28;20027;-68
2021/09/29 06:13:08;;;;;;;5.40;3.47;;;;;;;;;;5088268;28;20415;-68
2021/09/29 06:15:34;;;;;;;5.95;3.15;;;;;;;;;;5087580;28;20028;-68
2021/09/29 06:18:04;;;;;;;5.35;3.22;;;;;;;;;;5081092;28;20511;-68
2021/09/29 06:20:32;;;;;;;6.07;3.45;;;;;;;;;;5071169;28;20044;-68
2021/09/29 06:22:58;;;;;;;6.97;3.40;;;;;;;;;;5071050;28;20478;-68
2021/09/29 06:25:24;;;;;;;6.15;3.10;;;;;;;;;;5070894;28;20089;-68
2021/09/29 06:27:49;;;;;;;9.50;3.55;;;;;;;;;;5071138;28;20020;-68
2021/09/29 06:30:15;;;;;;;10.45;3.83;;;;;;;;;;5070676;28;20050;-69
2021/09/29 06:32:42;;;;;;;6.85;3.92;;;;;;;;;;5070800;28;20039;-68
2021/09/29 06:35:07;;;;;;;6.63;3.40;;;;;;;;;;5070324;28;20111;-68
2021/09/29 06:37:39;;;;;;;8.10;3.50;;;;;;;;;;5070699;28;20436;-69
2021/09/29 06:40:16;;;;;;;5.90;3.15;;;;;;;;;;5070582;28;20146;-68
2021/09/29 06:42:43;;;;;;;6.70;3.50;;;;;;;;;;5070454;28;20472;-68
2021/09/29 06:45:10;;;;;;;5.32;3.20;;;;;;;;;;5069656;28;20107;-68
2021/09/29 06:47:38;;;;;;;6.65;3.80;;;;;;;;;;5069474;28;20027;-68
2021/09/29 06:50:05;;;;;;;7.30;4.03;;;;;;;;;;5070274;28;20016;-69
2021/09/29 06:52:30;;;;;;;6.93;3.70;;;;;;;;;;5070519;28;20056;-69
2021/09/29 06:54:56;;;;;;;6.25;3.63;;;;;;;;;;5070732;28;20426;-68
2021/09/29 06:57:21;;;;;;;9.48;3.83;;;;;;;;;;5070716;28;20033;-69
2021/09/29 06:59:47;;;;;;;6.70;3.25;;;;;;;;;;5070713;28;20388;-69
2021/09/29 07:02:13;;;;;;;6.65;3.63;;;;;;;;;;5071061;28;20025;-69
2021/09/29 07:04:38;;;;;;;7.65;3.47;;;;;;;;;;5088725;28;20056;-68
2021/09/29 07:07:04;;;;;;;8.20;3.63;;;;;;;;;;5075091;28;20103;-68
2021/09/29 07:09:29;;;;;;;6.15;3.83;;;;;;;;;;5074487;28;20020;-69
2021/09/29 07:11:55;;;;;;;6.93;3.92;;;;;;;;;;5074748;28;20060;-70
2021/09/29 07:14:20;;;;;;;8.77;3.53;;;;;;;;;;5074524;28;20032;-69
2021/09/29 07:16:47;;;;;;;5.78;3.42;;;;;;;;;;5074678;28;20416;-68
2021/09/29 07:19:13;;;;;;;5.70;3.22;;;;;;;;;;5074773;28;20031;-68
2021/09/29 07:21:38;;;;;;;5.63;3.40;;;;;;;;;;5074386;28;20021;-68
2021/09/29 07:24:04;;;;;;;7.82;3.78;;;;;;;;;;5074476;28;20029;-69
2021/09/29 07:26:30;;;;;;;7.32;3.60;;;;;;;;;;5074425;28;20039;-68
2021/09/29 07:28:56;;;;;;;7.25;4.07;;;;;;;;;;5074434;28;20025;-69
2021/09/29 07:31:21;;;;;;;8.25;3.72;;;;;;;;;;5074421;28;20027;-69
2021/09/29 07:33:47;;;;;;;6.03;3.60;;;;;;;;;;5074198;28;20021;-69
2021/09/29 07:36:13;;;;;;;8.20;3.67;;;;;;;;;;5074219;28;20458;-69
2021/09/29 07:38:40;;;;;;;6.10;3.85;;;;;;;;;;5073883;28;20025;-68
2021/09/29 07:41:05;;;;;;;6.65;3.95;;;;;;;;;;5074080;28;20472;-69
2021/09/29 07:43:31;;;;;;;8.52;4.03;;;;;;;;;;5073269;28;20027;-69
2021/09/29 07:45:57;;;;;;;6.47;3.95;;;;;;;;;;5074146;28;20111;-69
2021/09/29 07:48:23;;;;;;;7.45;4.13;;;;;;;;;;5074198;28;20089;-68
2021/09/29 07:50:48;;;;;;;6.50;3.78;;;;;;;;;;5074029;28;20029;-68
2021/09/29 07:53:14;;;;;;;9.23;4.75;;;;;;;;;;5073823;28;20075;-68
2021/09/29 07:55:40;;;;;;;5.80;4.10;;;;;;;;;;5073720;28;20078;-68
2021/09/29 07:58:05;;;;;;;8.82;4.40;;;;;;;;;;5073758;28;20344;-69
2021/09/29 08:00:31;;;;;;;8.30;4.00;;;;;;;;;;5073566;28;20025;-68
2021/09/29 08:02:56;;;;;;;11.15;4.03;;;;;;;;;;5073505;28;20025;-69
2021/09/29 08:05:22;;;;;;;9.27;4.68;;;;;;;;;;5073728;28;20029;-68
2021/09/29 08:07:50;;;;;;;7.25;3.90;;;;;;;;;;5073707;28;20040;-68
2021/09/29 08:10:15;;;;;;;8.25;4.13;;;;;;;;;;5073833;28;20024;-68
2021/09/29 08:12:41;;;;;;;8.68;4.43;;;;;;;;;;5073372;28;20372;-69
2021/09/29 08:15:12;;;;;;;7.55;4.60;;;;;;;;;;5072849;28;20468;-68
2021/09/29 08:17:47;;;;;;;7.97;4.25;;;;;;;;;;5073173;28;20320;-69
2021/09/29 08:20:17;;;;;;;7.25;4.85;;;;;;;;;;5073259;28;20380;-68
2021/09/29 08:22:47;;;;;;;6.57;3.83;;;;;;;;;;5073198;28;20032;-68
2021/09/29 08:25:30;;;;;;;7.40;4.40;;;;;;;;;;5073391;28;20020;-69
2021/09/29 08:28:11;;;;;;;8.38;4.50;;;;;;;;;;5088664;28;20359;-69
2021/09/29 08:35:58;;;;;;;8.43;4.25;;;;;;;;;;5073221;28;20055;-69
2021/09/29 08:43:35;;;;;;;7.10;4.07;;;;;;;;;;5072767;28;20074;-69
2021/09/29 08:46:08;;;;;;;8.68;4.30;;;;;;;;;;5054767;28;20012;-69
2021/09/29 08:53:54;;;;;;;7.22;4.40;;;;;;;;;;5073232;28;20024;-68
2021/09/29 08:56:38;;;;;;;8.35;4.80;;;;;;;;;;5072608;28;20021;-68
2021/09/29 09:18:17;;;;;;;8.07;4.57;;;;;;;;;;5072589;28;20052;-69
2021/09/29 09:20:48;;;;;;;6.63;4.53;;;;;;;;;;5072462;28;20477;-69
2021/09/29 09:23:14;;;;;;;7.28;4.80;;;;;;;;;;5072278;28;20103;-68
2021/09/29 09:25:44;;;;;;;9.38;4.57;;;;;;;;;;5071993;28;20108;-69
2021/09/29 09:28:22;;;;;;;7.28;4.40;;;;;;;;;;5071039;28;20472;-69
2021/09/29 09:30:50;;;;;;;9.43;4.32;;;;;;;;;;5072169;28;20046;-69
2021/09/29 09:33:26;;;;;;;7.30;4.38;;;;;;;;;;5071932;28;20350;-69
2021/09/29 09:35:52;;;;;;;8.15;4.55;;;;;;;;;;5054020;28;20048;-70
2021/09/29 09:38:23;;;;;;;13.48;4.80;;;;;;;;;;5071848;28;20415;-69
2021/09/29 09:40:59;;;;;;;8.90;4.38;;;;;;;;;;5071693;28;20480;-69
2021/09/29 09:43:26;;;;;;;8.32;4.15;;;;;;;;;;5071717;28;20107;-69
2021/09/29 09:45:53;;;;;;;8.05;4.35;;;;;;;;;;5071777;28;20038;-69
2021/09/29 09:48:26;;;;;;;8.55;4.57;;;;;;;;;;5071746;28;20450;-69
2021/09/29 09:51:03;;;;;;;9.43;4.68;;;;;;;;;;5072102;28;20354;-69
2021/09/29 09:53:29;;;;;;;11.90;5.32;;;;;;;;;;5071492;28;20024;-70
2021/09/29 09:55:55;;;;;;;10.77;4.10;;;;;;;;;;5071573;28;20031;-69
2021/09/29 09:58:21;;;;;;;10.45;4.60;;;;;;;;;;5071588;28;20028;-70
2021/09/29 10:00:47;;;;;;;9.05;4.57;;;;;;;;;;5071480;28;20074;-68
2021/09/29 10:03:13;;;;;;;7.97;4.25;;;;;;;;;;5071310;28;20123;-69
2021/09/29 10:05:42;;;;;;;7.43;4.35;;;;;;;;;;5063484;28;20048;-69
2021/09/29 10:08:09;;;;;;;7.78;4.28;;;;;;;;;;5071395;28;20037;-69
2021/09/29 10:27:13;;;;;;;6.72;4.65;;;;;;;;;;5071141;28;20484;-69
2021/09/29 10:29:42;;;;;;;8.43;4.55;;;;;;;;;;5070871;28;20020;-69
2021/09/29 10:32:17;;;;;;;10.15;4.80;;;;;;;;;;5071413;28;20024;-68
2021/09/29 10:40:36;;;;;;;9.57;4.38;;;;;;;;;;5070913;28;20028;-70
2021/09/29 10:43:05;;;;;;;10.00;4.45;;;;;;;;;;5071060;28;20027;-69
2021/09/29 10:45:46;;;;;;;10.70;4.70;;;;;;;;;;5070798;28;20463;-68
2021/09/29 10:48:43;;;;;;;7.43;4.68;;;;;;;;;;5071318;28;20025;-69
2021/09/29 11:04:51;;;;;;;9.05;5.05;;;;;;;;;;5070560;28;20295;-69
2021/09/29 11:29:34;;;;;;;8.90;4.95;;;;;;;;;;5070411;28;20035;-66
2021/09/29 11:32:16;;;;;;;11.18;5.15;;;;;;;;;;5085784;28;20025;-67
2021/09/29 11:34:42;;;;;;;8.30;4.70;;;;;;;;;;5070172;28;20021;-66
2021/09/29 11:37:30;;;;;;;12.25;4.80;;;;;;;;;;5070269;28;20021;-66
2021/09/29 12:10:23;;;;;;;10.23;4.80;;;;;;;;;;5072916;28;20028;-66
2021/09/29 12:12:51;;;;;;;8.23;4.88;;;;;;;;;;5073401;28;20383;-66
2021/09/29 12:15:17;;;;;;;15.77;4.55;;;;;;;;;;5073271;28;20025;-66
2021/09/29 12:17:44;;;;;;;12.63;4.53;;;;;;;;;;5073368;28;20472;-67
2021/09/29 12:20:14;;;;;;;13.88;4.75;;;;;;;;;;5073406;28;20070;-68
2021/09/29 12:22:48;;;;;;;10.73;5.57;;;;;;;;;;5073260;28;20028;-66
2021/09/29 12:25:33;;;;;;;12.60;5.22;;;;;;;;;;5073296;28;20028;-66
2021/09/29 12:30:56;;;;;;;10.43;4.50;;;;;;;;;;5073457;28;20027;-66
2021/09/29 12:33:42;;;;;;;8.52;4.15;;;;;;;;;;5068588;28;20380;-66
2021/09/29 12:36:07;;;;;;;15.77;4.35;;;;;;;;;;5072881;28;20093;-67
2021/09/29 12:38:38;;;;;;;12.35;4.82;;;;;;;;;;5073060;28;20099;-66
2021/09/29 12:41:05;;;;;;;10.80;4.25;;;;;;;;;;5073088;28;20052;-66
2021/09/29 12:43:31;;;;;;;13.82;4.60;;;;;;;;;;5073290;28;20021;-66
2021/09/29 12:45:56;;;;;;;13.07;4.30;;;;;;;;;;5072763;28;20492;-66
2021/09/29 12:48:25;;;;;;;11.32;4.25;;;;;;;;;;5073086;28;20028;-66
2021/09/29 12:51:01;;;;;;;12.98;4.32;;;;;;;;;;5088651;28;20032;-67
2021/09/29 12:53:46;;;;;;;15.02;5.00;;;;;;;;;;5072961;28;20017;-67
2021/09/29 12:58:36;;;;;;;11.38;4.03;;;;;;;;;;5073081;28;20119;-66
2021/09/29 13:01:02;;;;;;;9.52;4.32;;;;;;;;;;5072609;28;20059;-67
2021/09/29 13:03:27;;;;;;;14.82;4.97;;;;;;;;;;5072515;28;20068;-67
2021/09/29 13:05:55;;;;;;;13.73;4.60;;;;;;;;;;5072489;28;20028;-66
2021/09/29 13:08:21;;;;;;;11.18;4.35;;;;;;;;;;5073245;28;20492;-67
2021/09/29 13:10:46;;;;;;;13.10;4.10;;;;;;;;;;5072422;28;20016;-66
2021/09/29 13:13:13;;;;;;;10.40;4.25;;;;;;;;;;5072437;28;20495;-66
2021/09/29 13:15:51;;;;;;;12.40;4.00;;;;;;;;;;5072175;28;20028;-66
2021/09/29 13:20:58;;;;;;;14.73;5.53;;;;;;;;;;5072245;28;20085;-66
2021/09/29 13:23:35;;;;;;;12.38;4.20;;;;;;;;;;5071850;28;20439;-66
2021/09/29 13:37:07;;;;;;;;;;;;;;;;;;5086171;28;20039;-66
2021/09/29 13:39:33;;;;;;;13.70;4.10;;;;;;;;;;5077902;28;20327;-67
2021/09/29 13:41:58;;;;;;;10.95;4.10;;;;;;;;;;5071689;28;20082;-66
2021/09/29 13:44:25;;;;;;;16.45;5.00;;;;;;;;;;5075862;28;20085;-67
2021/09/29 13:46:51;;;;;;;14.02;4.15;;;;;;;;;;5107483;28;20020;-66
2021/09/29 13:49:16;;;;;;;12.93;4.90;;;;;;;;;;5092099;28;20483;-66
2021/09/29 13:51:46;;;;;;;14.35;4.10;;;;;;;;;;5091791;28;20077;-66
2021/09/29 13:54:17;;;;;;;13.32;4.10;;;;;;;;;;5091943;28;20020;-67
2021/09/29 14:29:08;;;;;;;9.88;4.28;;;;;;;;;;5072997;28;20067;-66
2021/09/29 14:34:04;;;;;;;11.80;4.30;;;;;;;;;;5070971;28;20081;-66
2021/09/29 14:36:30;;;;;;;12.73;4.30;;;;;;;;;;5070746;28;20028;-66
2021/09/29 14:38:55;;;;;;;11.35;4.72;;;;;;;;;;5082628;28;20028;-66
2021/09/29 14:41:20;;;;;;;10.93;4.40;;;;;;;;;;5079008;28;20024;-67
2021/09/29 14:43:46;;;;;;;14.93;4.55;;;;;;;;;;5091050;28;20020;-66
2021/09/29 14:46:12;;;;;;;9.27;4.47;;;;;;;;;;5082151;28;20431;-66
2021/09/29 14:48:37;;;;;;;12.52;4.07;;;;;;;;;;5083535;28;20024;-66
2021/09/29 14:51:06;;;;;;;12.02;4.82;;;;;;;;;;5070907;28;20032;-66
2021/09/29 14:53:37;;;;;;;11.07;4.68;;;;;;;;;;5071319;28;20346;-67
2021/09/29 14:56:04;;;;;;;9.60;4.22;;;;;;;;;;5070552;28;20029;-67
2021/09/29 14:58:33;;;;;;;12.05;4.15;;;;;;;;;;5072088;28;20052;-66
2021/09/29 15:00:59;;;;;;;9.93;3.92;;;;;;;;;;5075660;28;20489;-67
2021/09/29 15:03:24;;;;;;;12.63;4.07;;;;;;;;;;5090809;28;20040;-66
2021/09/29 15:05:51;;;;;;;9.32;4.05;;;;;;;;;;5089396;28;20054;-66
2021/09/29 15:08:17;;;;;;;10.32;3.50;;;;;;;;;;5090686;28;20046;-66
2021/09/29 15:10:43;;;;;;;14.35;4.07;;;;;;;;;;5088249;28;20091;-66
2021/09/29 15:13:12;;;;;;;12.00;3.85;;;;;;;;;;5076734;28;20116;-66
2021/09/29 15:15:46;;;;;;;13.30;4.25;;;;;;;;;;5070569;28;20020;-66
2021/09/29 15:18:16;;;;;;;13.73;4.00;;;;;;;;;;5052572;28;20427;-67
2021/09/29 15:23:52;;;;;;;12.10;4.18;;;;;;;;;;5070841;28;20108;-66
2021/09/29 15:29:24;;;;;;;16.33;4.60;;;;;;;;;;5078017;28;20244;-67
2021/09/29 15:53:18;;;;;;;13.90;5.13;;;;;;;;;;5094527;28;20036;-69
2021/09/29 15:55:58;;;;;;;10.52;3.80;;;;;;;;;;5094318;28;20028;-69
2021/09/29 16:01:07;;;;;;;11.90;3.95;;;;;;;;;;5094374;28;20158;-69
2021/09/29 16:03:48;;;;;;;13.90;3.80;;;;;;;;;;5094063;28;20054;-69
2021/09/29 16:06:31;;;;;;;10.85;4.78;;;;;;;;;;5094133;28;20511;-69
2021/09/29 16:35:35;;;;;;;16.50;3.78;;;;;;;;;;5077641;28;20108;-68
2021/09/29 16:38:01;;;;;;;15.95;3.90;;;;;;;;;;5082032;28;20028;-69
2021/09/29 16:40:27;;;;;;;15.05;4.43;;;;;;;;;;5057535;28;20500;-69
2021/09/29 16:42:54;;;;;;;12.88;4.45;;;;;;;;;;5071449;28;20047;-69
2021/09/29 16:45:25;;;;;;;15.75;3.95;;;;;;;;;;5061604;28;20024;-69
2021/09/29 16:47:54;;;;;;;19.55;4.45;;;;;;;;;;5065399;28;20081;-69
2021/09/29 16:50:24;;;;;;;11.20;3.67;;;;;;;;;;5064152;28;20024;-69
2021/09/29 16:52:55;;;;;;;15.90;3.72;;;;;;;;;;5067790;28;20400;-69
2021/09/29 16:55:31;;;;;;;17.17;4.30;;;;;;;;;;5049566;28;20054;-69
2021/09/29 17:00:55;;;;;;;11.45;3.97;;;;;;;;;;5065106;28;21193;-68
2021/09/29 17:03:21;;;;;;;14.65;3.90;;;;;;;;;;5063033;28;20055;-68
2021/09/29 17:05:47;;;;;;;14.43;4.07;;;;;;;;;;5090198;28;20442;-69
2021/09/29 17:08:15;;;;;;;19.88;3.70;;;;;;;;;;5072797;28;20035;-68
2021/09/29 17:10:42;;;;;;;18.52;4.15;;;;;;;;;;5055731;28;20112;-68
2021/09/29 17:13:10;;;;;;;12.88;3.20;;;;;;;;;;5055048;28;20032;-68
2021/09/29 17:15:35;;;;;;;12.98;4.10;;;;;;;;;;5054509;28;20028;-69
2021/09/29 17:18:01;;;;;;;17.40;3.58;;;;;;;;;;5075230;28;20031;-69
2021/09/29 17:20:27;;;;;;;17.17;4.60;;;;;;;;;;5075797;28;20073;-69
2021/09/29 17:23:00;;;;;;;14.57;3.67;;;;;;;;;;5079717;28;20032;-69
2021/09/29 17:25:27;;;;;;;10.93;3.07;;;;;;;;;;5069041;28;20031;-68
2021/09/29 17:27:55;;;;;;;15.23;3.80;;;;;;;;;;5084741;28;20746;-69
2021/09/29 17:30:24;;;;;;;16.00;3.45;;;;;;;;;;5074961;28;20020;-69
2021/09/29 17:33:16;;;;;;;13.88;3.50;;;;;;;;;;5082408;28;20029;-68
2021/09/29 17:54:38;;;;;;;16.80;3.22;;;;;;;;;;5076196;28;19958;-68
2021/09/29 17:57:03;;;;;;;13.25;3.42;;;;;;;;;;5064088;28;20032;-68
2021/09/29 17:59:31;;;;;;;17.50;4.05;;;;;;;;;;5064650;28;20028;-68
2021/09/29 18:02:03;;;;;;;21.95;3.78;;;;;;;;;;5072218;28;20031;-68
2021/09/29 18:04:30;;;;;;;12.18;4.07;;;;;;;;;;5074886;28;20532;-68
2021/09/29 18:07:11;;;;;;;11.90;3.33;;;;;;;;;;5067042;28;20025;-68
2021/09/29 18:09:37;;;;;;;11.77;3.03;;;;;;;;;;5051460;28;20147;-68
2021/09/29 18:12:04;;;;;;;17.17;3.30;;;;;;;;;;5077864;28;20107;-68
2021/09/29 18:14:32;;;;;;;20.33;4.70;;;;;;;;;;5074791;28;20028;-68
2021/09/29 18:16:57;;;;;;;14.85;3.58;;;;;;;;;;5077488;28;20107;-68
2021/09/29 18:19:23;;;;;;;12.35;4.07;;;;;;;;;;5063062;28;20135;-68
2021/09/29 18:21:50;;;;;;;14.18;3.17;;;;;;;;;;5059913;28;20073;-68
2021/09/29 18:24:19;;;;;;;13.80;3.92;;;;;;;;;;5075492;28;20032;-68
2021/09/29 18:26:50;;;;;;;16.80;3.47;;;;;;;;;;5078639;28;20064;-68
2021/09/29 18:29:17;;;;;;;11.05;3.47;;;;;;;;;;5061126;28;20024;-68
2021/09/29 18:31:43;;;;;;;15.85;4.38;;;;;;;;;;5071945;28;20111;-68
2021/09/29 18:34:09;;;;;;;13.52;3.15;;;;;;;;;;5070818;28;20096;-68
2021/09/29 18:36:38;;;;;;;12.80;3.88;;;;;;;;;;5059136;28;20486;-67
2021/09/29 18:39:05;;;;;;;16.80;3.33;;;;;;;;;;5090732;28;20261;-68
2021/09/29 18:41:33;;;;;;;10.93;3.13;;;;;;;;;;5089666;28;20027;-68
2021/09/29 18:44:02;;;;;;;10.68;3.10;;;;;;;;;;5072756;28;20031;-68
2021/09/29 18:46:32;;;;;;;11.43;3.65;;;;;;;;;;5081063;28;20438;-68
2021/09/29 18:48:57;;;;;;;11.57;3.83;;;;;;;;;;5078589;28;20031;-68
2021/09/29 18:51:23;;;;;;;13.23;3.13;;;;;;;;;;5065277;28;20037;-68
2021/09/29 18:54:04;;;;;;;17.13;3.95;;;;;;;;;;5073946;28;20024;-68
2021/09/29 19:09:46;;;;;;;12.48;3.35;;;;;;;;;;5066370;28;20051;-68
2021/09/29 19:12:11;;;;;;;18.75;3.65;;;;;;;;;;5064818;28;20078;-68
2021/09/29 19:14:42;;;;;;;22.20;4.47;;;;;;;;;;5082279;28;20028;-68
2021/09/29 19:17:09;;;;;;;14.70;3.63;;;;;;;;;;5084112;28;20024;-68
2021/09/29 19:19:35;;;;;;;19.60;4.03;;;;;;;;;;5091251;28;20036;-68
2021/09/29 19:22:01;;;;;;;23.63;3.83;;;;;;;;;;5070869;28;20111;-68
2021/09/29 19:24:26;;;;;;;17.25;3.67;;;;;;;;;;5066547;28;20100;-69
2021/09/29 19:26:52;;;;;;;20.48;4.50;;;;;;;;;;5078262;28;20032;-68
2021/09/29 19:29:17;;;;;;;18.80;3.55;;;;;;;;;;5045295;28;20495;-68